createdAt,value
2019-03-13T00:00:41.938Z,31.60
2019-03-13T00:03:11.090Z,31.15
2019-03-13T00:05:39.923Z,26.37
2019-03-13T00:08:08.720Z,33.85
2019-03-13T00:10:37.266Z,39.53
2019-03-13T00:13:06.034Z,28.00
2019-03-13T00:15:34.659Z,28.02
2019-03-13T00:18:03.253Z,26.30
2019-03-13T00:20:31.785Z,45.33
2019-03-13T00:23:00.292Z,24.10
2019-03-13T00:25:28.889Z,27.45
2019-03-13T00:27:57.470Z,30.00
2019-03-13T00:30:26.160Z,21.30
2019-03-13T00:32:54.700Z,22.93
2019-03-13T00:35:23.351Z,18.77
2019-03-13T00:37:51.946Z,23.07
2019-03-13T00:40:20.454Z,16.55
2019-03-13T00:42:48.994Z,13.32
2019-03-13T00:45:17.515Z,13.38
2019-03-13T00:47:46.329Z,15.78
2019-03-13T00:50:26.949Z,23.35
2019-03-13T00:52:55.470Z,22.20
2019-03-13T00:55:24.015Z,20.48
2019-03-13T00:57:52.612Z,17.60
2019-03-13T01:00:39.451Z,19.65
2019-03-13T01:03:09.671Z,13.10
2019-03-13T01:05:56.527Z,12.15
2019-03-13T01:08:25.050Z,15.15
2019-03-13T01:10:53.663Z,16.77
2019-03-13T01:13:22.328Z,37.40
2019-03-13T01:15:50.850Z,45.33
2019-03-13T01:18:19.379Z,53.38
2019-03-13T01:20:47.921Z,39.80
2019-03-13T01:23:16.432Z,41.28
2019-03-13T01:25:45.043Z,24.27
2019-03-13T01:28:13.720Z,24.32
2019-03-13T01:30:46.708Z,18.65
2019-03-13T01:33:16.873Z,16.82
2019-03-13T01:35:47.032Z,19.52
2019-03-13T01:38:15.627Z,18.23
2019-03-13T01:40:44.201Z,15.43
2019-03-13T01:43:12.810Z,11.88
2019-03-13T01:45:41.474Z,13.62
2019-03-13T01:48:10.053Z,13.00
2019-03-13T01:50:38.557Z,26.23
2019-03-13T01:53:07.067Z,18.27
2019-03-13T01:55:35.678Z,12.30
2019-03-13T01:58:04.406Z,13.25
2019-03-13T02:00:33.347Z,10.23
2019-03-13T02:03:01.960Z,10.48
2019-03-13T02:05:30.470Z,10.15
2019-03-13T02:07:59.083Z,18.00
2019-03-13T02:10:27.593Z,15.80
2019-03-13T02:12:56.130Z,13.28
2019-03-13T02:15:24.713Z,7.42
2019-03-13T02:17:53.229Z,12.30
2019-03-13T02:20:21.741Z,8.95
2019-03-13T02:22:50.351Z,16.00
2019-03-13T02:25:19.098Z,11.85
2019-03-13T02:27:47.679Z,9.40
2019-03-13T02:30:21.548Z,13.48
2019-03-13T02:32:50.277Z,11.05
2019-03-13T02:35:18.896Z,10.18
2019-03-13T02:37:47.411Z,9.55
2019-03-13T02:40:16.591Z,6.53
2019-03-13T02:42:45.114Z,8.10
2019-03-13T02:45:15.176Z,7.92
2019-03-13T02:47:43.701Z,7.17
2019-03-13T02:50:16.606Z,7.28
2019-03-13T02:52:45.180Z,6.30
2019-03-13T02:55:13.861Z,8.40
2019-03-13T02:57:42.441Z,5.58
2019-03-13T03:00:15.374Z,9.00
2019-03-13T03:02:45.889Z,6.80
2019-03-13T03:05:14.540Z,5.40
2019-03-13T03:07:43.046Z,5.65
2019-03-13T03:10:13.010Z,9.58
2019-03-13T03:12:41.681Z,10.43
2019-03-13T03:15:18.093Z,12.00
2019-03-13T03:17:46.677Z,10.65
2019-03-13T03:20:17.726Z,10.88
2019-03-13T03:22:46.347Z,11.45
2019-03-13T03:25:16.413Z,7.75
2019-03-13T03:27:44.987Z,8.03
2019-03-13T03:30:19.024Z,7.58
2019-03-13T03:32:47.546Z,12.50
2019-03-13T03:35:16.238Z,10.20
2019-03-13T03:37:44.834Z,12.03
2019-03-13T03:40:21.338Z,9.88
2019-03-13T03:42:46.429Z,8.75
2019-03-13T03:45:15.089Z,9.88
2019-03-13T03:47:43.676Z,9.35
2019-03-13T03:50:13.804Z,12.65
2019-03-13T03:52:42.266Z,11.25
2019-03-13T03:55:12.106Z,9.05
2019-03-13T03:57:40.627Z,9.93
2019-03-13T04:00:15.032Z,9.33
2019-03-13T04:02:43.483Z,8.80
2019-03-13T04:05:12.193Z,8.90
2019-03-13T04:07:40.729Z,6.20
2019-03-13T04:10:13.459Z,8.08
2019-03-13T04:12:41.988Z,7.90
2019-03-13T04:15:12.051Z,11.60
2019-03-13T04:17:40.610Z,15.85
2019-03-13T04:20:14.187Z,53.10
2019-03-13T04:22:42.782Z,24.87
2019-03-13T04:25:23.489Z,9.70
2019-03-13T04:27:52.021Z,9.13
2019-03-13T04:30:20.477Z,12.47
2019-03-13T04:32:48.965Z,12.07
2019-03-13T04:35:18.195Z,14.05
2019-03-13T04:37:46.677Z,9.23
2019-03-13T04:40:15.712Z,11.25
2019-03-13T04:42:44.262Z,12.45
2019-03-13T04:45:13.278Z,16.17
2019-03-13T04:47:41.758Z,21.80
2019-03-13T04:50:46.846Z,23.87
2019-03-13T04:53:15.328Z,25.85
2019-03-13T04:55:43.821Z,25.23
2019-03-13T04:58:12.321Z,26.00
2019-03-13T05:00:40.792Z,33.40
2019-03-13T05:03:09.454Z,13.93
2019-03-13T05:05:44.993Z,12.00
2019-03-13T05:08:19.076Z,21.15
2019-03-13T05:10:47.543Z,40.20
2019-03-13T05:13:16.002Z,23.20
2019-03-13T05:15:44.503Z,27.70
2019-03-13T05:18:13.084Z,24.67
2019-03-13T05:20:41.560Z,15.88
2019-03-13T05:23:10.057Z,18.00
2019-03-13T05:25:38.523Z,16.17
2019-03-13T05:28:07.132Z,27.35
2019-03-13T05:30:35.583Z,20.65
2019-03-13T05:33:04.038Z,8.63
2019-03-13T05:35:32.529Z,9.25
2019-03-13T05:38:00.991Z,28.95
2019-03-13T05:40:29.477Z,15.38
2019-03-13T05:42:57.993Z,28.90
2019-03-13T05:45:26.458Z,15.53
2019-03-13T05:47:54.973Z,19.45
2019-03-13T05:50:23.430Z,13.65
2019-03-13T05:52:51.899Z,13.40
2019-03-13T05:55:20.386Z,16.80
2019-03-13T05:57:48.850Z,14.40
2019-03-13T06:00:18.967Z,22.22
2019-03-13T06:02:48.117Z,17.60
2019-03-13T06:05:16.659Z,19.20
2019-03-13T06:07:45.122Z,18.17
2019-03-13T06:10:14.927Z,17.32
2019-03-13T06:12:43.422Z,12.45
2019-03-13T06:15:13.627Z,9.60
2019-03-13T06:17:42.194Z,10.48
2019-03-13T06:20:13.498Z,10.08
2019-03-13T06:22:41.995Z,12.37
2019-03-13T06:25:12.463Z,16.57
2019-03-13T06:27:40.944Z,43.58
2019-03-13T06:30:18.227Z,11.90
2019-03-13T06:32:46.773Z,43.70
2019-03-13T06:35:15.505Z,43.90
2019-03-13T06:37:44.151Z,38.60
2019-03-13T06:40:14.355Z,39.08
2019-03-13T06:42:42.926Z,49.27
2019-03-13T06:45:13.426Z,28.02
2019-03-13T06:47:42.017Z,29.35
2019-03-13T06:50:13.462Z,39.90
2019-03-13T06:52:41.994Z,29.60
2019-03-13T06:55:10.859Z,18.60
2019-03-13T06:57:39.329Z,37.83
2019-03-13T07:00:39.423Z,20.80
2019-03-13T07:03:27.884Z,31.27
2019-03-13T07:05:58.002Z,27.42
2019-03-13T07:08:39.872Z,32.10
2019-03-13T07:11:22.236Z,32.70
2019-03-13T07:14:08.432Z,30.08
2019-03-13T07:16:54.787Z,35.98
2019-03-13T07:19:24.897Z,16.75
2019-03-13T07:21:57.955Z,22.30
2019-03-13T07:24:31.040Z,45.17
2019-03-13T07:27:01.175Z,35.83
2019-03-13T07:29:43.095Z,44.27
2019-03-13T07:32:13.208Z,51.33
2019-03-13T07:34:46.032Z,33.23
2019-03-13T07:37:18.590Z,27.13
2019-03-13T07:40:05.095Z,26.17
2019-03-13T07:42:35.195Z,24.00
2019-03-13T07:45:06.548Z,26.60
2019-03-13T07:47:45.923Z,20.00
2019-03-13T07:50:19.282Z,13.30
2019-03-13T07:52:55.099Z,22.22
2019-03-13T07:55:40.188Z,26.15
2019-03-13T07:58:10.335Z,22.05
2019-03-13T08:00:40.464Z,18.02
2019-03-13T08:03:19.576Z,14.80
2019-03-13T08:05:49.685Z,20.00
2019-03-13T08:08:19.825Z,42.17
2019-03-13T08:10:52.356Z,52.38
2019-03-13T08:13:40.560Z,56.80
2019-03-13T08:16:25.688Z,56.55
2019-03-13T08:19:01.699Z,24.80
2019-03-13T08:21:47.692Z,65.80
2019-03-13T08:24:35.904Z,41.73
2019-03-13T08:27:24.446Z,24.12
2019-03-13T08:30:12.938Z,18.67
2019-03-13T08:32:45.873Z,33.83
2019-03-13T08:35:24.655Z,43.10
2019-03-13T08:37:54.762Z,52.27
2019-03-13T08:40:36.385Z,56.88
2019-03-13T08:43:22.694Z,22.17
2019-03-13T08:46:08.994Z,32.67
2019-03-13T08:48:54.509Z,86.35
2019-03-13T08:51:36.387Z,24.37
2019-03-13T08:54:23.252Z,25.75
2019-03-13T08:57:08.428Z,97.57
2019-03-13T08:59:54.825Z,36.63
2019-03-13T09:02:37.438Z,21.15
2019-03-13T09:05:08.784Z,22.58
2019-03-13T09:07:38.893Z,24.15
2019-03-13T09:10:14.689Z,25.43
2019-03-13T09:12:44.794Z,20.68
2019-03-13T09:15:27.199Z,18.05
2019-03-13T09:18:02.882Z,21.05
2019-03-13T09:20:35.723Z,16.23
2019-03-13T09:23:14.564Z,18.62
2019-03-13T09:25:56.658Z,19.48
2019-03-13T09:28:29.432Z,14.70
2019-03-13T09:31:02.006Z,17.45
2019-03-13T09:33:34.814Z,20.52
2019-03-13T09:36:04.946Z,22.30
2019-03-13T09:38:38.209Z,17.82
2019-03-13T09:43:45.800Z,18.00
2019-03-13T09:46:21.709Z,21.77
2019-03-13T09:48:51.815Z,25.77
2019-03-13T09:51:21.960Z,16.62
2019-03-13T09:53:57.557Z,16.97
2019-03-13T09:56:27.658Z,14.43
2019-03-13T09:59:16.075Z,19.55
2019-03-13T10:01:48.873Z,11.57
2019-03-13T10:04:35.483Z,37.38
2019-03-13T10:07:11.320Z,95.15
2019-03-13T10:09:41.462Z,77.08
2019-03-13T10:12:26.692Z,25.95
2019-03-13T10:15:13.029Z,25.57
2019-03-13T10:17:59.424Z,25.37
2019-03-13T10:20:29.537Z,60.38
2019-03-13T10:23:02.619Z,27.32
2019-03-13T10:25:42.049Z,17.75
2019-03-13T10:28:18.156Z,21.85
2019-03-13T10:31:04.663Z,27.58
2019-03-13T10:33:34.787Z,13.38
2019-03-13T10:36:04.893Z,24.02
2019-03-13T10:38:41.090Z,25.92
2019-03-13T10:41:27.140Z,13.30
2019-03-13T10:43:57.273Z,15.83
2019-03-13T10:46:45.153Z,18.45
2019-03-13T10:49:15.322Z,19.92
2019-03-13T10:51:45.457Z,17.15
2019-03-13T10:54:24.722Z,32.70
2019-03-13T10:57:03.729Z,20.82
2019-03-13T10:59:36.506Z,16.55
2019-03-13T11:02:10.656Z,14.15
2019-03-13T11:04:40.938Z,24.52
2019-03-13T11:07:11.046Z,21.50
2019-03-13T11:09:41.159Z,13.78
2019-03-13T11:12:20.020Z,18.98
2019-03-13T11:14:50.155Z,18.55
2019-03-13T11:17:26.193Z,23.90
2019-03-13T11:20:11.166Z,33.73
2019-03-13T11:22:41.304Z,24.85
2019-03-13T11:25:11.545Z,14.83
2019-03-13T11:27:44.358Z,21.50
2019-03-13T11:30:32.759Z,16.00
2019-03-13T11:33:05.868Z,18.40
2019-03-13T11:35:35.974Z,14.58
2019-03-13T11:38:06.349Z,20.32
2019-03-13T11:40:44.994Z,15.00
2019-03-13T11:43:18.221Z,12.10
2019-03-13T11:45:54.099Z,18.32
2019-03-13T11:48:38.943Z,17.55
2019-03-13T11:51:15.471Z,11.70
2019-03-13T11:54:34.144Z,13.78
2019-03-13T12:02:42.749Z,46.55
2019-03-13T12:05:14.008Z,30.37
2019-03-13T12:07:49.614Z,62.83
2019-03-13T12:10:19.791Z,65.83
2019-03-13T12:12:55.662Z,24.65
2019-03-13T12:15:25.839Z,49.85
2019-03-13T12:17:56.040Z,42.98
2019-03-13T12:20:26.139Z,12.50
2019-03-13T12:22:58.941Z,22.80
2019-03-13T12:25:29.039Z,32.75
2019-03-13T12:28:11.019Z,10.18
2019-03-13T12:30:46.908Z,10.00
2019-03-13T12:33:19.819Z,13.35
2019-03-13T12:35:52.393Z,20.85
2019-03-13T12:38:28.406Z,10.20
2019-03-13T12:40:58.679Z,12.50
2019-03-13T12:43:44.911Z,10.98
2019-03-13T12:46:31.382Z,8.75
2019-03-13T12:49:01.500Z,11.55
2019-03-13T12:51:37.085Z,9.60
2019-03-13T12:54:07.367Z,15.00
2019-03-13T12:56:45.956Z,10.58
2019-03-13T12:59:16.128Z,18.07
2019-03-13T13:01:52.231Z,11.35
2019-03-13T13:04:25.576Z,9.28
2019-03-13T13:07:04.357Z,10.23
2019-03-13T13:09:46.820Z,18.27
2019-03-13T13:12:19.659Z,7.03
2019-03-13T13:14:55.639Z,31.70
2019-03-13T13:17:31.852Z,8.78
2019-03-13T13:20:00.403Z,25.27
2019-03-13T13:22:28.936Z,15.98
2019-03-13T13:24:57.539Z,15.35
2019-03-13T13:27:26.034Z,41.95
2019-03-13T13:29:54.720Z,13.40
2019-03-13T13:32:24.647Z,30.77
2019-03-13T13:34:53.097Z,14.10
2019-03-13T13:37:21.657Z,16.65
2019-03-13T13:39:50.286Z,16.45
2019-03-13T13:42:18.901Z,13.85
2019-03-13T13:44:47.424Z,11.93
2019-03-13T13:47:15.887Z,20.68
2019-03-13T13:49:58.884Z,13.55
2019-03-13T13:52:16.884Z,19.80
2019-03-13T13:54:45.389Z,28.15
2019-03-13T13:57:13.991Z,29.15
2019-03-13T13:59:42.554Z,12.37
2019-03-13T14:02:11.049Z,13.85
2019-03-13T14:04:39.513Z,20.27
2019-03-13T14:07:08.024Z,15.25
2019-03-13T14:09:36.567Z,11.93
2019-03-13T14:12:05.276Z,14.87
2019-03-13T14:14:33.755Z,27.82
2019-03-13T14:17:02.224Z,18.23
2019-03-13T14:19:30.703Z,11.83
2019-03-13T14:21:59.158Z,14.63
2019-03-13T14:24:27.635Z,11.68
2019-03-13T14:26:56.115Z,10.72
2019-03-13T14:29:24.590Z,26.07
2019-03-13T14:31:53.364Z,14.40
2019-03-13T14:34:21.916Z,19.45
2019-03-13T14:36:50.435Z,25.40
2019-03-13T14:39:18.978Z,29.18
2019-03-13T14:41:47.589Z,38.42
2019-03-13T14:44:16.053Z,56.33
2019-03-13T14:46:44.660Z,69.37
2019-03-13T14:49:13.195Z,40.28
2019-03-13T14:51:41.710Z,89.55
2019-03-13T14:54:11.763Z,76.07
2019-03-13T14:56:40.263Z,21.62
2019-03-13T14:59:10.033Z,16.32
2019-03-13T15:01:38.494Z,36.93
2019-03-13T15:04:08.069Z,43.25
2019-03-13T15:06:38.750Z,54.13
2019-03-13T15:09:06.869Z,49.33
2019-03-13T15:11:35.348Z,35.30
2019-03-13T15:14:04.613Z,24.72
2019-03-13T15:16:33.115Z,33.95
2019-03-13T15:19:01.603Z,45.70
2019-03-13T15:21:30.060Z,32.08
2019-03-13T15:23:58.513Z,18.98
2019-03-13T15:26:27.085Z,24.55
2019-03-13T15:28:55.553Z,41.88
2019-03-13T15:31:24.059Z,24.43
2019-03-13T15:33:52.535Z,120.08
2019-03-13T15:36:21.020Z,34.10
2019-03-13T15:38:49.513Z,34.20
2019-03-13T15:41:17.999Z,36.28
2019-03-13T15:43:47.950Z,77.03
2019-03-13T15:46:16.453Z,88.03
2019-03-13T15:48:47.654Z,68.95
2019-03-13T15:51:16.132Z,29.20
2019-03-13T15:53:44.664Z,97.97
2019-03-13T15:56:13.177Z,99.42
2019-03-13T15:58:41.650Z,31.70
2019-03-13T16:01:10.190Z,76.45
2019-03-13T16:03:38.667Z,26.20
2019-03-13T16:06:07.169Z,64.55
2019-03-13T16:08:35.633Z,46.30
2019-03-13T16:11:04.401Z,43.02
2019-03-13T16:13:32.854Z,40.05
2019-03-13T16:16:01.668Z,180.93
2019-03-13T16:18:30.132Z,156.47
2019-03-13T16:20:58.613Z,70.67
2019-03-13T16:23:27.131Z,100.65
2019-03-13T16:25:55.869Z,53.55
2019-03-13T16:28:24.469Z,45.90
2019-03-13T16:30:54.567Z,50.85
2019-03-13T16:33:23.127Z,70.95
2019-03-13T16:35:51.606Z,60.67
2019-03-13T16:38:20.079Z,62.53
2019-03-13T16:40:48.623Z,59.00
2019-03-13T16:43:18.378Z,72.27
2019-03-13T16:45:46.928Z,102.32
2019-03-13T16:48:15.474Z,36.53
2019-03-13T16:50:46.404Z,135.48
2019-03-13T16:53:14.907Z,92.20
2019-03-13T16:55:43.378Z,116.37
2019-03-13T16:58:11.879Z,114.85
2019-03-13T17:00:40.533Z,110.52
2019-03-13T17:03:09.071Z,124.85
2019-03-13T17:05:37.582Z,114.42
2019-03-13T17:08:07.472Z,142.05
2019-03-13T17:10:35.980Z,88.17
2019-03-13T17:13:05.683Z,130.52
2019-03-13T17:15:34.711Z,100.20
2019-03-13T17:18:05.178Z,52.83
2019-03-13T17:20:39.396Z,122.40
2019-03-13T17:23:07.906Z,103.22
2019-03-13T17:25:36.621Z,123.90
2019-03-13T17:28:06.046Z,161.90
2019-03-13T17:30:34.714Z,134.12
2019-03-13T17:33:03.169Z,180.50
2019-03-13T17:35:31.815Z,141.92
2019-03-13T17:38:00.356Z,52.88
2019-03-13T17:40:30.677Z,59.65
2019-03-13T17:42:59.170Z,38.78
2019-03-13T17:45:27.809Z,38.20
2019-03-13T17:47:56.363Z,62.88
2019-03-13T17:50:25.743Z,33.28
2019-03-13T17:52:54.377Z,35.92
2019-03-13T17:55:24.264Z,21.77
2019-03-13T17:57:52.962Z,28.90
2019-03-13T18:00:31.844Z,23.75
2019-03-13T18:03:00.472Z,39.30
2019-03-13T18:05:29.004Z,32.08
2019-03-13T18:07:57.502Z,24.05
2019-03-13T18:10:25.983Z,13.95
2019-03-13T18:12:54.545Z,23.30
2019-03-13T18:15:23.113Z,23.30
2019-03-13T18:17:51.711Z,28.40
2019-03-13T18:20:24.817Z,27.58
2019-03-13T18:22:53.512Z,28.47
2019-03-13T18:25:22.184Z,27.27
2019-03-13T18:27:50.831Z,26.37
2019-03-13T18:30:33.625Z,54.03
2019-03-13T18:33:02.260Z,37.75
2019-03-13T18:35:30.976Z,43.98
2019-03-13T18:37:59.611Z,29.37
2019-03-13T18:40:28.151Z,29.55
2019-03-13T18:42:56.785Z,38.45
2019-03-13T18:45:32.430Z,33.88
2019-03-13T18:48:00.981Z,31.55
2019-03-13T18:50:30.105Z,29.23
2019-03-13T18:52:58.651Z,32.13
2019-03-13T18:55:37.022Z,46.48
2019-03-13T18:58:06.414Z,55.58
2019-03-13T19:00:36.020Z,22.70
2019-03-13T19:03:06.843Z,28.17
2019-03-13T19:05:36.787Z,55.10
2019-03-13T19:08:06.935Z,34.88
2019-03-13T19:10:35.685Z,44.30
2019-03-13T19:13:06.255Z,37.25
2019-03-13T19:15:34.974Z,54.73
2019-03-13T19:18:03.586Z,33.13
2019-03-13T19:20:32.196Z,23.07
2019-03-13T19:23:01.132Z,34.80
2019-03-13T19:25:29.937Z,33.23
2019-03-13T19:27:58.664Z,23.65
2019-03-13T19:30:31.827Z,28.60
2019-03-13T19:33:01.174Z,237.35
2019-03-13T19:35:29.843Z,25.62
2019-03-13T19:38:01.169Z,79.30
2019-03-13T19:40:29.880Z,141.82
2019-03-13T19:42:58.377Z,35.23
2019-03-13T19:45:41.550Z,33.53
2019-03-13T19:48:10.416Z,27.98
2019-03-13T19:50:39.044Z,28.77
2019-03-13T19:53:07.887Z,44.50
2019-03-13T19:55:36.554Z,40.67
2019-03-13T19:58:06.069Z,35.73
2019-03-13T20:00:34.681Z,39.00
2019-03-13T20:03:06.230Z,32.30
2019-03-13T20:05:44.681Z,34.15
2019-03-13T20:08:05.377Z,63.73
2019-03-13T20:10:34.212Z,28.17
2019-03-13T20:13:02.899Z,42.78
2019-03-13T20:15:32.998Z,46.73
2019-03-13T20:18:01.687Z,149.45
2019-03-13T20:20:30.392Z,37.85
2019-03-13T20:23:04.635Z,59.50
2019-03-13T20:25:33.434Z,38.55
2019-03-13T20:28:02.121Z,38.70
2019-03-13T20:30:30.755Z,33.45
2019-03-13T20:32:59.457Z,30.20
2019-03-13T20:35:28.134Z,30.37
2019-03-13T20:37:56.873Z,32.67
2019-03-13T20:40:26.558Z,31.93
2019-03-13T20:42:55.287Z,46.40
2019-03-13T20:45:26.904Z,47.83
2019-03-13T20:47:55.743Z,42.95
2019-03-13T20:50:36.097Z,35.05
2019-03-13T20:52:54.853Z,31.73
2019-03-13T20:55:23.989Z,44.10
2019-03-13T20:57:52.564Z,96.00
2019-03-13T21:00:25.528Z,78.45
2019-03-13T21:02:55.140Z,109.12
2019-03-13T21:05:24.142Z,90.77
2019-03-13T21:07:53.153Z,78.97
2019-03-13T21:10:21.978Z,84.32
2019-03-13T21:12:50.638Z,121.10
2019-03-13T21:15:21.777Z,74.75
2019-03-13T21:17:50.391Z,73.05
2019-03-13T21:20:19.465Z,74.75
2019-03-13T21:22:47.939Z,68.87
2019-03-13T21:25:20.887Z,73.10
2019-03-13T21:27:49.537Z,62.23
2019-03-13T21:30:26.246Z,66.85
2019-03-13T21:32:54.800Z,53.45
2019-03-13T21:35:24.004Z,42.83
2019-03-13T21:37:52.683Z,50.52
2019-03-13T21:40:26.367Z,33.08
2019-03-13T21:42:55.488Z,59.75
2019-03-13T21:45:25.975Z,42.98
2019-03-13T21:47:54.583Z,51.28
2019-03-13T21:50:23.554Z,29.92
2019-03-13T21:52:52.361Z,23.40
2019-03-13T21:55:20.925Z,28.30
2019-03-13T21:57:51.935Z,22.15
2019-03-13T22:00:27.542Z,26.52
2019-03-13T22:02:56.469Z,30.45
2019-03-13T22:05:27.048Z,19.62
2019-03-13T22:07:56.199Z,46.55
2019-03-13T22:10:24.863Z,19.60
2019-03-13T22:12:53.414Z,20.08
2019-03-13T22:15:23.117Z,25.27
2019-03-13T22:17:51.762Z,19.77
2019-03-13T22:20:20.677Z,26.85
2019-03-13T22:22:49.326Z,47.33
2019-03-13T22:25:19.707Z,25.68
2019-03-13T22:27:48.445Z,22.00
2019-03-13T22:30:19.150Z,24.77
2019-03-13T22:32:47.831Z,23.98
2019-03-13T22:35:16.427Z,26.17
2019-03-13T22:37:44.977Z,21.73
2019-03-13T22:40:14.908Z,22.98
2019-03-13T22:42:43.386Z,23.42
2019-03-13T22:45:16.945Z,23.35
2019-03-13T22:47:45.489Z,22.22
2019-03-13T22:50:24.914Z,16.82
2019-03-13T22:52:53.521Z,18.10
2019-03-13T22:55:22.133Z,20.20
2019-03-13T22:57:50.590Z,22.13
2019-03-13T23:00:41.631Z,18.23
2019-03-13T23:03:10.837Z,22.15
2019-03-13T23:05:39.411Z,19.80
2019-03-13T23:08:07.949Z,37.65
2019-03-13T23:10:36.983Z,16.05
2019-03-13T23:13:05.611Z,16.40
2019-03-13T23:15:34.151Z,21.27
2019-03-13T23:18:02.652Z,15.00
2019-03-13T23:20:31.119Z,15.95
2019-03-13T23:22:59.584Z,13.75
2019-03-13T23:25:28.329Z,14.73
2019-03-13T23:27:56.804Z,11.60
2019-03-13T23:30:25.340Z,15.55
2019-03-13T23:32:53.838Z,11.25
2019-03-13T23:35:22.377Z,14.18
2019-03-13T23:37:50.857Z,12.33
2019-03-13T23:40:19.334Z,15.43
2019-03-13T23:42:47.795Z,10.50
2019-03-13T23:45:16.430Z,10.20
2019-03-13T23:47:44.896Z,13.18
2019-03-13T23:50:14.540Z,11.45
2019-03-13T23:52:43.023Z,13.20
2019-03-13T23:55:11.954Z,12.55
2019-03-13T23:57:40.418Z,12.75
